sensor_id;sensor_type;location;lat;lon;timestamp;temperature;humidity
18147;DHT22;9199;48.832;9.182;2023-04-27T00:01:51;9.00;99.90
18147;DHT22;9199;48.832;9.182;2023-04-27T00:04:19;9.00;99.90
18147;DHT22;9199;48.832;9.182;2023-04-27T00:06:45;8.90;99.90
18147;DHT22;9199;48.832;9.182;2023-04-27T00:09:12;8.90;99.90
18147;DHT22;9199;48.832;9.182;2023-04-27T00:11:39;8.90;99.90
18147;DHT22;9199;48.832;9.182;2023-04-27T00:14:05;8.90;99.90
18147;DHT22;9199;48.832;9.182;2023-04-27T00:16:32;8.90;99.90
18147;DHT22;9199;48.832;9.182;2023-04-27T00:18:59;8.90;99.90
18147;DHT22;9199;48.832;9.182;2023-04-27T00:21:27;8.90;99.90
18147;DHT22;9199;48.832;9.182;2023-04-27T00:23:54;8.90;99.90
18147;DHT22;9199;48.832;9.182;2023-04-27T00:26:20;8.90;99.90
18147;DHT22;9199;48.832;9.182;2023-04-27T00:28:47;8.90;99.90
18147;DHT22;9199;48.832;9.182;2023-04-27T00:31:14;8.80;99.90
18147;DHT22;9199;48.832;9.182;2023-04-27T00:33:40;8.80;99.90
18147;DHT22;9199;48.832;9.182;2023-04-27T00:36:08;8.80;99.90
18147;DHT22;9199;48.832;9.182;2023-04-27T00:38:36;8.70;99.90
18147;DHT22;9199;48.832;9.182;2023-04-27T00:41:03;8.70;99.90
18147;DHT22;9199;48.832;9.182;2023-04-27T00:43:31;8.60;99.90
18147;DHT22;9199;48.832;9.182;2023-04-27T00:45:58;8.60;99.90
18147;DHT22;9199;48.832;9.182;2023-04-27T00:48:25;8.60;99.90
18147;DHT22;9199;48.832;9.182;2023-04-27T00:50:52;8.70;99.90
18147;DHT22;9199;48.832;9.182;2023-04-27T00:53:19;8.70;99.90
18147;DHT22;9199;48.832;9.182;2023-04-27T00:55:47;8.70;99.90
18147;DHT22;9199;48.832;9.182;2023-04-27T00:58:14;8.70;99.90
18147;DHT22;9199;48.832;9.182;2023-04-27T01:00:41;8.70;99.90
18147;DHT22;9199;48.832;9.182;2023-04-27T01:03:07;8.60;99.90
18147;DHT22;9199;48.832;9.182;2023-04-27T01:05:35;8.60;99.90
18147;DHT22;9199;48.832;9.182;2023-04-27T01:08:03;8.50;99.90
18147;DHT22;9199;48.832;9.182;2023-04-27T01:10:29;8.50;99.90
18147;DHT22;9199;48.832;9.182;2023-04-27T01:12:57;8.50;99.90
18147;DHT22;9199;48.832;9.182;2023-04-27T01:15:24;8.50;99.90
18147;DHT22;9199;48.832;9.182;2023-04-27T01:17:56;8.50;99.90
18147;DHT22;9199;48.832;9.182;2023-04-27T01:20:23;8.50;99.90
18147;DHT22;9199;48.832;9.182;2023-04-27T01:22:50;8.50;99.90
18147;DHT22;9199;48.832;9.182;2023-04-27T01:25:18;8.40;99.90
18147;DHT22;9199;48.832;9.182;2023-04-27T01:27:45;8.30;99.90
18147;DHT22;9199;48.832;9.182;2023-04-27T01:30:12;8.30;99.90
18147;DHT22;9199;48.832;9.182;2023-04-27T01:32:39;8.30;99.90
18147;DHT22;9199;48.832;9.182;2023-04-27T01:35:06;8.30;99.90
18147;DHT22;9199;48.832;9.182;2023-04-27T01:37:34;8.30;99.90
18147;DHT22;9199;48.832;9.182;2023-04-27T01:40:01;8.20;99.90
18147;DHT22;9199;48.832;9.182;2023-04-27T01:42:36;8.20;99.90
18147;DHT22;9199;48.832;9.182;2023-04-27T01:45:04;8.20;99.90
18147;DHT22;9199;48.832;9.182;2023-04-27T01:47:31;8.20;99.90
18147;DHT22;9199;48.832;9.182;2023-04-27T01:49:58;8.20;99.90
18147;DHT22;9199;48.832;9.182;2023-04-27T01:52:24;8.20;99.90
18147;DHT22;9199;48.832;9.182;2023-04-27T01:54:51;8.10;99.90
18147;DHT22;9199;48.832;9.182;2023-04-27T01:57:18;8.10;99.90
18147;DHT22;9199;48.832;9.182;2023-04-27T01:59:46;8.10;99.90
18147;DHT22;9199;48.832;9.182;2023-04-27T02:02:12;8.10;99.90
18147;DHT22;9199;48.832;9.182;2023-04-27T02:04:39;8.00;99.90
18147;DHT22;9199;48.832;9.182;2023-04-27T02:07:07;8.00;99.90
18147;DHT22;9199;48.832;9.182;2023-04-27T02:09:34;7.90;99.90
18147;DHT22;9199;48.832;9.182;2023-04-27T02:12:01;7.90;99.90
18147;DHT22;9199;48.832;9.182;2023-04-27T02:14:28;7.90;99.90
18147;DHT22;9199;48.832;9.182;2023-04-27T02:16:56;7.90;99.90
18147;DHT22;9199;48.832;9.182;2023-04-27T02:19:22;7.90;99.90
18147;DHT22;9199;48.832;9.182;2023-04-27T02:21:49;7.90;99.90
18147;DHT22;9199;48.832;9.182;2023-04-27T02:24:16;7.90;99.90
18147;DHT22;9199;48.832;9.182;2023-04-27T02:26:43;7.90;99.90
18147;DHT22;9199;48.832;9.182;2023-04-27T02:29:10;7.90;99.90
18147;DHT22;9199;48.832;9.182;2023-04-27T02:31:37;7.90;99.90
18147;DHT22;9199;48.832;9.182;2023-04-27T02:34:05;7.90;99.90
18147;DHT22;9199;48.832;9.182;2023-04-27T02:36:31;7.90;99.90
18147;DHT22;9199;48.832;9.182;2023-04-27T02:38:58;7.90;99.90
18147;DHT22;9199;48.832;9.182;2023-04-27T02:41:25;7.90;99.90
18147;DHT22;9199;48.832;9.182;2023-04-27T02:43:53;7.90;99.90
18147;DHT22;9199;48.832;9.182;2023-04-27T02:46:19;7.90;99.90
18147;DHT22;9199;48.832;9.182;2023-04-27T02:48:46;7.90;99.90
18147;DHT22;9199;48.832;9.182;2023-04-27T02:51:14;7.90;99.90
18147;DHT22;9199;48.832;9.182;2023-04-27T02:53:40;7.90;99.90
18147;DHT22;9199;48.832;9.182;2023-04-27T02:56:07;7.90;99.90
18147;DHT22;9199;48.832;9.182;2023-04-27T02:58:34;7.80;99.90
18147;DHT22;9199;48.832;9.182;2023-04-27T03:01:00;7.90;99.90
18147;DHT22;9199;48.832;9.182;2023-04-27T03:03:27;7.90;99.90
18147;DHT22;9199;48.832;9.182;2023-04-27T03:05:54;7.90;99.90
18147;DHT22;9199;48.832;9.182;2023-04-27T03:08:22;7.90;99.90
18147;DHT22;9199;48.832;9.182;2023-04-27T03:10:49;7.90;99.90
18147;DHT22;9199;48.832;9.182;2023-04-27T03:13:15;7.90;99.90
18147;DHT22;9199;48.832;9.182;2023-04-27T03:15:42;7.90;99.90
18147;DHT22;9199;48.832;9.182;2023-04-27T03:18:09;7.90;99.90
18147;DHT22;9199;48.832;9.182;2023-04-27T03:20:35;7.90;99.90
18147;DHT22;9199;48.832;9.182;2023-04-27T03:23:02;7.90;99.90
18147;DHT22;9199;48.832;9.182;2023-04-27T03:25:30;7.90;99.90
18147;DHT22;9199;48.832;9.182;2023-04-27T03:27:57;7.80;99.90
18147;DHT22;9199;48.832;9.182;2023-04-27T03:30:24;7.80;99.90
18147;DHT22;9199;48.832;9.182;2023-04-27T03:32:50;7.80;99.90
18147;DHT22;9199;48.832;9.182;2023-04-27T03:35:17;7.80;99.90
18147;DHT22;9199;48.832;9.182;2023-04-27T03:37:44;7.80;99.90
18147;DHT22;9199;48.832;9.182;2023-04-27T03:40:11;7.70;99.90
18147;DHT22;9199;48.832;9.182;2023-04-27T03:42:40;7.70;99.90
18147;DHT22;9199;48.832;9.182;2023-04-27T03:45:07;7.70;99.90
18147;DHT22;9199;48.832;9.182;2023-04-27T03:47:36;7.70;99.90
18147;DHT22;9199;48.832;9.182;2023-04-27T03:50:03;7.60;99.90
18147;DHT22;9199;48.832;9.182;2023-04-27T03:52:30;7.60;99.90
18147;DHT22;9199;48.832;9.182;2023-04-27T03:54:57;7.60;99.90
18147;DHT22;9199;48.832;9.182;2023-04-27T03:57:23;7.60;99.90
18147;DHT22;9199;48.832;9.182;2023-04-27T03:59:52;7.60;99.90
18147;DHT22;9199;48.832;9.182;2023-04-27T04:02:18;7.60;99.90
18147;DHT22;9199;48.832;9.182;2023-04-27T04:04:46;7.60;99.90
18147;DHT22;9199;48.832;9.182;2023-04-27T04:07:13;7.60;99.90
18147;DHT22;9199;48.832;9.182;2023-04-27T04:09:39;7.60;99.90
18147;DHT22;9199;48.832;9.182;2023-04-27T04:12:07;7.70;99.90
18147;DHT22;9199;48.832;9.182;2023-04-27T04:14:34;7.70;99.90
18147;DHT22;9199;48.832;9.182;2023-04-27T04:17:02;7.70;99.90
18147;DHT22;9199;48.832;9.182;2023-04-27T04:19:28;7.70;99.90
18147;DHT22;9199;48.832;9.182;2023-04-27T04:21:55;7.70;99.90
18147;DHT22;9199;48.832;9.182;2023-04-27T04:24:22;7.70;99.90
18147;DHT22;9199;48.832;9.182;2023-04-27T04:26:49;7.70;99.90
18147;DHT22;9199;48.832;9.182;2023-04-27T04:29:15;7.70;99.90
18147;DHT22;9199;48.832;9.182;2023-04-27T04:31:42;7.70;99.90
18147;DHT22;9199;48.832;9.182;2023-04-27T04:34:10;7.80;99.90
18147;DHT22;9199;48.832;9.182;2023-04-27T04:36:37;7.80;99.90
18147;DHT22;9199;48.832;9.182;2023-04-27T04:39:03;7.90;99.90
18147;DHT22;9199;48.832;9.182;2023-04-27T04:41:31;7.90;99.90
18147;DHT22;9199;48.832;9.182;2023-04-27T04:43:57;7.90;99.90
18147;DHT22;9199;48.832;9.182;2023-04-27T04:46:25;7.90;99.90
18147;DHT22;9199;48.832;9.182;2023-04-27T04:48:51;7.90;99.90
18147;DHT22;9199;48.832;9.182;2023-04-27T04:51:19;7.90;99.90
18147;DHT22;9199;48.832;9.182;2023-04-27T04:53:46;7.90;99.90
18147;DHT22;9199;48.832;9.182;2023-04-27T04:56:13;7.90;99.90
18147;DHT22;9199;48.832;9.182;2023-04-27T04:58:41;7.90;99.90
18147;DHT22;9199;48.832;9.182;2023-04-27T05:01:08;8.00;99.90
18147;DHT22;9199;48.832;9.182;2023-04-27T05:03:35;8.10;99.90
18147;DHT22;9199;48.832;9.182;2023-04-27T05:06:01;8.50;99.90
18147;DHT22;9199;48.832;9.182;2023-04-27T05:08:29;9.30;99.90
18147;DHT22;9199;48.832;9.182;2023-04-27T05:10:56;9.80;99.90
18147;DHT22;9199;48.832;9.182;2023-04-27T05:13:23;10.10;99.90
18147;DHT22;9199;48.832;9.182;2023-04-27T05:15:50;10.30;99.90
18147;DHT22;9199;48.832;9.182;2023-04-27T05:18:17;10.50;99.90
18147;DHT22;9199;48.832;9.182;2023-04-27T05:20:44;10.20;99.90
18147;DHT22;9199;48.832;9.182;2023-04-27T05:23:10;9.90;99.90
18147;DHT22;9199;48.832;9.182;2023-04-27T05:25:38;9.70;99.90
18147;DHT22;9199;48.832;9.182;2023-04-27T05:28:07;9.50;99.90
18147;DHT22;9199;48.832;9.182;2023-04-27T05:30:34;9.30;99.90
18147;DHT22;9199;48.832;9.182;2023-04-27T05:33:01;9.20;99.90
18147;DHT22;9199;48.832;9.182;2023-04-27T05:35:28;9.10;99.90
18147;DHT22;9199;48.832;9.182;2023-04-27T05:37:55;9.10;99.90
18147;DHT22;9199;48.832;9.182;2023-04-27T05:40:21;9.10;99.90
18147;DHT22;9199;48.832;9.182;2023-04-27T05:42:50;9.10;99.90
18147;DHT22;9199;48.832;9.182;2023-04-27T05:45:17;9.10;99.90
18147;DHT22;9199;48.832;9.182;2023-04-27T05:47:44;9.20;99.90
18147;DHT22;9199;48.832;9.182;2023-04-27T05:50:10;9.30;99.90
18147;DHT22;9199;48.832;9.182;2023-04-27T05:52:38;9.50;99.90
18147;DHT22;9199;48.832;9.182;2023-04-27T05:55:06;9.60;99.90
18147;DHT22;9199;48.832;9.182;2023-04-27T05:57:33;9.70;99.90
18147;DHT22;9199;48.832;9.182;2023-04-27T06:00:01;9.90;99.90
18147;DHT22;9199;48.832;9.182;2023-04-27T06:02:31;10.00;99.90
18147;DHT22;9199;48.832;9.182;2023-04-27T06:04:58;10.10;99.90
18147;DHT22;9199;48.832;9.182;2023-04-27T06:07:25;10.20;99.90
18147;DHT22;9199;48.832;9.182;2023-04-27T06:09:51;10.30;99.90
18147;DHT22;9199;48.832;9.182;2023-04-27T06:12:18;10.40;99.90
18147;DHT22;9199;48.832;9.182;2023-04-27T06:14:45;10.50;99.90
18147;DHT22;9199;48.832;9.182;2023-04-27T06:17:13;10.60;99.90
18147;DHT22;9199;48.832;9.182;2023-04-27T06:19:39;10.80;99.90
18147;DHT22;9199;48.832;9.182;2023-04-27T06:22:06;11.00;99.90
18147;DHT22;9199;48.832;9.182;2023-04-27T06:24:33;11.10;99.90
18147;DHT22;9199;48.832;9.182;2023-04-27T06:27:00;11.30;99.90
18147;DHT22;9199;48.832;9.182;2023-04-27T06:29:27;11.50;99.90
18147;DHT22;9199;48.832;9.182;2023-04-27T06:31:54;11.50;99.90
18147;DHT22;9199;48.832;9.182;2023-04-27T06:34:22;11.70;99.90
18147;DHT22;9199;48.832;9.182;2023-04-27T06:36:48;11.80;99.90
18147;DHT22;9199;48.832;9.182;2023-04-27T06:39:15;11.80;99.90
18147;DHT22;9199;48.832;9.182;2023-04-27T06:41:42;11.90;99.90
18147;DHT22;9199;48.832;9.182;2023-04-27T06:44:09;12.10;99.90
18147;DHT22;9199;48.832;9.182;2023-04-27T06:46:35;12.10;99.90
18147;DHT22;9199;48.832;9.182;2023-04-27T06:49:02;12.20;99.90
18147;DHT22;9199;48.832;9.182;2023-04-27T06:51:30;12.40;99.90
18147;DHT22;9199;48.832;9.182;2023-04-27T06:53:57;12.50;99.90
18147;DHT22;9199;48.832;9.182;2023-04-27T06:56:23;12.80;99.90
18147;DHT22;9199;48.832;9.182;2023-04-27T06:58:50;13.00;99.90
18147;DHT22;9199;48.832;9.182;2023-04-27T07:01:17;12.90;99.90
18147;DHT22;9199;48.832;9.182;2023-04-27T07:03:43;12.90;99.90
18147;DHT22;9199;48.832;9.182;2023-04-27T07:06:10;13.00;99.90
18147;DHT22;9199;48.832;9.182;2023-04-27T07:08:39;13.00;99.90
18147;DHT22;9199;48.832;9.182;2023-04-27T07:11:06;13.10;99.90
18147;DHT22;9199;48.832;9.182;2023-04-27T07:13:32;13.20;99.90
18147;DHT22;9199;48.832;9.182;2023-04-27T07:15:59;13.30;99.90
18147;DHT22;9199;48.832;9.182;2023-04-27T07:18:26;13.40;99.90
18147;DHT22;9199;48.832;9.182;2023-04-27T07:20:53;13.50;99.90
18147;DHT22;9199;48.832;9.182;2023-04-27T07:23:20;13.60;99.90
18147;DHT22;9199;48.832;9.182;2023-04-27T07:25:48;13.70;99.90
18147;DHT22;9199;48.832;9.182;2023-04-27T07:28:15;13.60;99.90
18147;DHT22;9199;48.832;9.182;2023-04-27T07:30:41;13.60;99.50
18147;DHT22;9199;48.832;9.182;2023-04-27T07:33:08;13.60;99.10
18147;DHT22;9199;48.832;9.182;2023-04-27T07:35:35;14.10;98.90
18147;DHT22;9199;48.832;9.182;2023-04-27T07:38:02;14.90;98.70
18147;DHT22;9199;48.832;9.182;2023-04-27T07:40:29;15.60;96.00
18147;DHT22;9199;48.832;9.182;2023-04-27T07:42:58;15.90;95.90
18147;DHT22;9199;48.832;9.182;2023-04-27T07:45:25;16.60;94.90
18147;DHT22;9199;48.832;9.182;2023-04-27T07:47:56;16.90;94.40
18147;DHT22;9199;48.832;9.182;2023-04-27T07:50:25;17.20;93.90
18147;DHT22;9199;48.832;9.182;2023-04-27T07:52:52;17.40;91.60
18147;DHT22;9199;48.832;9.182;2023-04-27T07:55:19;17.30;94.10
18147;DHT22;9199;48.832;9.182;2023-04-27T07:57:47;17.50;91.90
18147;DHT22;9199;48.832;9.182;2023-04-27T08:00:16;17.80;91.20
18147;DHT22;9199;48.832;9.182;2023-04-27T08:02:43;18.00;88.70
18147;DHT22;9199;48.832;9.182;2023-04-27T08:05:10;18.00;86.50
18147;DHT22;9199;48.832;9.182;2023-04-27T08:07:37;17.90;84.50
18147;DHT22;9199;48.832;9.182;2023-04-27T08:10:05;18.00;84.70
18147;DHT22;9199;48.832;9.182;2023-04-27T08:12:32;18.40;86.40
18147;DHT22;9199;48.832;9.182;2023-04-27T08:14:59;18.60;85.10
18147;DHT22;9199;48.832;9.182;2023-04-27T08:17:27;18.90;84.70
18147;DHT22;9199;48.832;9.182;2023-04-27T08:19:53;19.10;84.60
18147;DHT22;9199;48.832;9.182;2023-04-27T08:22:20;19.10;83.60
18147;DHT22;9199;48.832;9.182;2023-04-27T08:24:47;18.70;82.20
18147;DHT22;9199;48.832;9.182;2023-04-27T08:27:13;18.50;82.70
18147;DHT22;9199;48.832;9.182;2023-04-27T08:29:44;18.40;81.70
18147;DHT22;9199;48.832;9.182;2023-04-27T08:32:12;18.60;82.10
18147;DHT22;9199;48.832;9.182;2023-04-27T08:34:41;19.20;76.80
18147;DHT22;9199;48.832;9.182;2023-04-27T08:37:09;19.80;77.60
18147;DHT22;9199;48.832;9.182;2023-04-27T08:39:36;20.30;76.30
18147;DHT22;9199;48.832;9.182;2023-04-27T08:42:09;20.20;80.30
18147;DHT22;9199;48.832;9.182;2023-04-27T08:44:37;20.50;73.60
18147;DHT22;9199;48.832;9.182;2023-04-27T08:47:05;20.90;75.70
18147;DHT22;9199;48.832;9.182;2023-04-27T08:49:32;21.30;68.00
18147;DHT22;9199;48.832;9.182;2023-04-27T08:52:00;21.30;66.10
18147;DHT22;9199;48.832;9.182;2023-04-27T08:54:27;21.50;63.00
18147;DHT22;9199;48.832;9.182;2023-04-27T08:56:54;21.70;61.10
18147;DHT22;9199;48.832;9.182;2023-04-27T08:59:20;21.90;64.20
18147;DHT22;9199;48.832;9.182;2023-04-27T09:01:48;22.00;61.60
18147;DHT22;9199;48.832;9.182;2023-04-27T09:04:15;22.40;62.30
18147;DHT22;9199;48.832;9.182;2023-04-27T09:06:43;22.20;63.90
18147;DHT22;9199;48.832;9.182;2023-04-27T09:09:20;22.40;61.90
18147;DHT22;9199;48.832;9.182;2023-04-27T09:11:47;22.00;59.50
18147;DHT22;9199;48.832;9.182;2023-04-27T09:14:16;21.60;61.10
18147;DHT22;9199;48.832;9.182;2023-04-27T09:16:44;21.80;61.00
18147;DHT22;9199;48.832;9.182;2023-04-27T09:19:11;22.10;59.60
18147;DHT22;9199;48.832;9.182;2023-04-27T09:21:37;21.80;62.30
18147;DHT22;9199;48.832;9.182;2023-04-27T09:24:12;21.30;60.60
18147;DHT22;9199;48.832;9.182;2023-04-27T09:26:39;21.60;59.00
18147;DHT22;9199;48.832;9.182;2023-04-27T09:29:07;21.30;58.00
18147;DHT22;9199;48.832;9.182;2023-04-27T09:31:35;21.10;59.50
18147;DHT22;9199;48.832;9.182;2023-04-27T09:34:03;21.30;59.70
18147;DHT22;9199;48.832;9.182;2023-04-27T09:36:31;21.80;58.90
18147;DHT22;9199;48.832;9.182;2023-04-27T09:39:01;21.60;58.50
18147;DHT22;9199;48.832;9.182;2023-04-27T09:41:30;22.10;55.60
18147;DHT22;9199;48.832;9.182;2023-04-27T09:43:58;22.10;55.40
18147;DHT22;9199;48.832;9.182;2023-04-27T09:46:27;22.30;58.10
18147;DHT22;9199;48.832;9.182;2023-04-27T09:48:55;22.20;55.70
18147;DHT22;9199;48.832;9.182;2023-04-27T09:51:22;21.80;56.50
18147;DHT22;9199;48.832;9.182;2023-04-27T09:53:52;20.80;57.30
18147;DHT22;9199;48.832;9.182;2023-04-27T09:56:26;20.70;58.00
18147;DHT22;9199;48.832;9.182;2023-04-27T09:59:13;21.10;56.10
18147;DHT22;9199;48.832;9.182;2023-04-27T10:01:46;20.90;55.90
18147;DHT22;9199;48.832;9.182;2023-04-27T10:04:32;21.30;55.10
18147;DHT22;9199;48.832;9.182;2023-04-27T10:07:03;21.60;59.60
18147;DHT22;9199;48.832;9.182;2023-04-27T10:09:34;22.50;54.40
18147;DHT22;9199;48.832;9.182;2023-04-27T10:12:14;22.70;54.80
18147;DHT22;9199;48.832;9.182;2023-04-27T10:14:52;23.10;54.50
18147;DHT22;9199;48.832;9.182;2023-04-27T10:17:24;23.70;53.90
18147;DHT22;9199;48.832;9.182;2023-04-27T10:19:53;24.50;51.20
18147;DHT22;9199;48.832;9.182;2023-04-27T10:22:20;24.50;50.40
18147;DHT22;9199;48.832;9.182;2023-04-27T10:24:48;24.10;50.50
18147;DHT22;9199;48.832;9.182;2023-04-27T10:27:17;24.30;49.70
18147;DHT22;9199;48.832;9.182;2023-04-27T10:29:46;24.50;51.30
18147;DHT22;9199;48.832;9.182;2023-04-27T10:32:19;24.50;48.70
18147;DHT22;9199;48.832;9.182;2023-04-27T10:34:48;25.00;49.10
18147;DHT22;9199;48.832;9.182;2023-04-27T10:37:15;25.40;47.00
18147;DHT22;9199;48.832;9.182;2023-04-27T10:39:43;25.90;46.90
18147;DHT22;9199;48.832;9.182;2023-04-27T10:42:10;26.10;47.30
18147;DHT22;9199;48.832;9.182;2023-04-27T10:44:37;26.30;49.50
18147;DHT22;9199;48.832;9.182;2023-04-27T10:47:13;26.70;44.50
18147;DHT22;9199;48.832;9.182;2023-04-27T10:49:40;26.80;46.60
18147;DHT22;9199;48.832;9.182;2023-04-27T10:52:07;27.00;45.90
18147;DHT22;9199;48.832;9.182;2023-04-27T10:54:35;26.90;45.50
18147;DHT22;9199;48.832;9.182;2023-04-27T10:57:04;26.50;46.00
18147;DHT22;9199;48.832;9.182;2023-04-27T10:59:31;26.80;45.50
18147;DHT22;9199;48.832;9.182;2023-04-27T11:01:58;27.20;43.60
18147;DHT22;9199;48.832;9.182;2023-04-27T11:04:36;27.20;42.40
18147;DHT22;9199;48.832;9.182;2023-04-27T11:07:04;25.90;46.10
18147;DHT22;9199;48.832;9.182;2023-04-27T11:09:33;25.80;43.70
18147;DHT22;9199;48.832;9.182;2023-04-27T11:12:00;25.70;45.50
18147;DHT22;9199;48.832;9.182;2023-04-27T11:14:27;25.50;44.20
18147;DHT22;9199;48.832;9.182;2023-04-27T11:16:54;25.50;46.40
18147;DHT22;9199;48.832;9.182;2023-04-27T11:19:21;25.70;46.40
18147;DHT22;9199;48.832;9.182;2023-04-27T11:21:49;25.60;45.20
18147;DHT22;9199;48.832;9.182;2023-04-27T11:24:15;26.10;45.40
18147;DHT22;9199;48.832;9.182;2023-04-27T11:26:42;26.50;42.90
18147;DHT22;9199;48.832;9.182;2023-04-27T11:29:09;26.60;42.50
18147;DHT22;9199;48.832;9.182;2023-04-27T11:31:39;26.20;44.10
18147;DHT22;9199;48.832;9.182;2023-04-27T11:34:08;26.10;44.50
18147;DHT22;9199;48.832;9.182;2023-04-27T11:36:35;26.30;43.40
18147;DHT22;9199;48.832;9.182;2023-04-27T11:39:03;26.40;43.60
18147;DHT22;9199;48.832;9.182;2023-04-27T11:41:32;26.40;42.80
18147;DHT22;9199;48.832;9.182;2023-04-27T11:44:03;26.80;44.10
18147;DHT22;9199;48.832;9.182;2023-04-27T11:46:32;26.70;42.30
18147;DHT22;9199;48.832;9.182;2023-04-27T11:49:01;26.40;43.10
18147;DHT22;9199;48.832;9.182;2023-04-27T11:51:28;26.50;42.90
18147;DHT22;9199;48.832;9.182;2023-04-27T11:53:55;26.50;42.30
18147;DHT22;9199;48.832;9.182;2023-04-27T11:56:33;26.60;41.00
18147;DHT22;9199;48.832;9.182;2023-04-27T11:59:00;27.60;39.30
18147;DHT22;9199;48.832;9.182;2023-04-27T12:01:27;27.90;40.40
18147;DHT22;9199;48.832;9.182;2023-04-27T12:03:54;27.70;40.80
18147;DHT22;9199;48.832;9.182;2023-04-27T12:06:23;27.50;41.30
18147;DHT22;9199;48.832;9.182;2023-04-27T12:08:50;27.60;41.50
18147;DHT22;9199;48.832;9.182;2023-04-27T12:11:17;26.70;42.60
18147;DHT22;9199;48.832;9.182;2023-04-27T12:13:45;26.70;41.60
18147;DHT22;9199;48.832;9.182;2023-04-27T12:16:12;27.50;41.10
18147;DHT22;9199;48.832;9.182;2023-04-27T12:18:39;27.60;40.50
18147;DHT22;9199;48.832;9.182;2023-04-27T12:21:06;27.90;38.60
18147;DHT22;9199;48.832;9.182;2023-04-27T12:23:32;28.00;38.70
18147;DHT22;9199;48.832;9.182;2023-04-27T12:25:59;28.30;40.50
18147;DHT22;9199;48.832;9.182;2023-04-27T12:28:26;28.40;39.90
18147;DHT22;9199;48.832;9.182;2023-04-27T12:30:54;29.10;40.00
18147;DHT22;9199;48.832;9.182;2023-04-27T12:33:21;29.60;38.80
18147;DHT22;9199;48.832;9.182;2023-04-27T12:35:47;29.50;37.90
18147;DHT22;9199;48.832;9.182;2023-04-27T12:38:14;29.80;38.20
18147;DHT22;9199;48.832;9.182;2023-04-27T12:40:41;29.80;38.60
18147;DHT22;9199;48.832;9.182;2023-04-27T12:43:08;29.90;37.70
18147;DHT22;9199;48.832;9.182;2023-04-27T12:45:35;30.20;38.00
18147;DHT22;9199;48.832;9.182;2023-04-27T12:48:03;30.10;36.30
18147;DHT22;9199;48.832;9.182;2023-04-27T12:50:30;30.10;35.80
18147;DHT22;9199;48.832;9.182;2023-04-27T12:52:57;30.20;35.70
18147;DHT22;9199;48.832;9.182;2023-04-27T12:55:24;28.70;38.60
18147;DHT22;9199;48.832;9.182;2023-04-27T12:57:51;27.70;39.80
18147;DHT22;9199;48.832;9.182;2023-04-27T13:00:18;27.40;38.80
18147;DHT22;9199;48.832;9.182;2023-04-27T13:02:45;27.00;40.60
18147;DHT22;9199;48.832;9.182;2023-04-27T13:05:13;26.20;40.60
18147;DHT22;9199;48.832;9.182;2023-04-27T13:07:40;26.10;40.30
18147;DHT22;9199;48.832;9.182;2023-04-27T13:10:07;25.90;41.40
18147;DHT22;9199;48.832;9.182;2023-04-27T13:12:34;25.90;42.10
18147;DHT22;9199;48.832;9.182;2023-04-27T13:15:00;25.80;43.50
18147;DHT22;9199;48.832;9.182;2023-04-27T13:17:27;26.60;40.60
18147;DHT22;9199;48.832;9.182;2023-04-27T13:19:54;27.10;40.40
18147;DHT22;9199;48.832;9.182;2023-04-27T13:22:22;27.20;39.90
18147;DHT22;9199;48.832;9.182;2023-04-27T13:24:49;26.90;41.70
18147;DHT22;9199;48.832;9.182;2023-04-27T13:27:15;27.00;40.30
18147;DHT22;9199;48.832;9.182;2023-04-27T13:29:42;27.20;40.60
18147;DHT22;9199;48.832;9.182;2023-04-27T13:32:09;27.80;40.30
18147;DHT22;9199;48.832;9.182;2023-04-27T13:34:35;28.20;38.30
18147;DHT22;9199;48.832;9.182;2023-04-27T13:37:02;28.30;39.80
18147;DHT22;9199;48.832;9.182;2023-04-27T13:39:30;27.70;38.90
18147;DHT22;9199;48.832;9.182;2023-04-27T13:41:58;27.80;39.70
18147;DHT22;9199;48.832;9.182;2023-04-27T13:44:25;27.80;40.50
18147;DHT22;9199;48.832;9.182;2023-04-27T13:46:51;27.40;40.10
18147;DHT22;9199;48.832;9.182;2023-04-27T13:49:18;27.90;39.90
18147;DHT22;9199;48.832;9.182;2023-04-27T13:51:45;27.70;39.70
18147;DHT22;9199;48.832;9.182;2023-04-27T13:54:12;27.90;39.50
18147;DHT22;9199;48.832;9.182;2023-04-27T13:56:40;28.60;38.70
18147;DHT22;9199;48.832;9.182;2023-04-27T13:59:06;28.90;38.50
18147;DHT22;9199;48.832;9.182;2023-04-27T14:01:34;29.60;38.30
18147;DHT22;9199;48.832;9.182;2023-04-27T14:04:01;29.80;37.90
18147;DHT22;9199;48.832;9.182;2023-04-27T14:06:28;29.20;37.20
18147;DHT22;9199;48.832;9.182;2023-04-27T14:08:56;28.70;36.70
18147;DHT22;9199;48.832;9.182;2023-04-27T14:11:23;27.60;39.00
18147;DHT22;9199;48.832;9.182;2023-04-27T14:13:52;26.10;41.90
18147;DHT22;9199;48.832;9.182;2023-04-27T14:16:18;25.20;42.30
18147;DHT22;9199;48.832;9.182;2023-04-27T14:18:45;24.00;42.70
18147;DHT22;9199;48.832;9.182;2023-04-27T14:21:12;23.50;43.90
18147;DHT22;9199;48.832;9.182;2023-04-27T14:23:38;23.80;44.80
18147;DHT22;9199;48.832;9.182;2023-04-27T14:26:05;23.90;44.40
18147;DHT22;9199;48.832;9.182;2023-04-27T14:28:32;23.40;44.80
18147;DHT22;9199;48.832;9.182;2023-04-27T14:31:00;22.70;46.20
18147;DHT22;9199;48.832;9.182;2023-04-27T14:33:27;22.40;46.20
18147;DHT22;9199;48.832;9.182;2023-04-27T14:35:53;22.50;45.70
18147;DHT22;9199;48.832;9.182;2023-04-27T14:38:21;22.70;45.80
18147;DHT22;9199;48.832;9.182;2023-04-27T14:40:47;22.50;46.60
18147;DHT22;9199;48.832;9.182;2023-04-27T14:43:14;22.10;46.80
18147;DHT22;9199;48.832;9.182;2023-04-27T14:45:42;21.80;46.20
18147;DHT22;9199;48.832;9.182;2023-04-27T14:48:10;21.60;48.10
18147;DHT22;9199;48.832;9.182;2023-04-27T14:50:36;21.30;48.40
18147;DHT22;9199;48.832;9.182;2023-04-27T14:53:03;21.10;48.90
18147;DHT22;9199;48.832;9.182;2023-04-27T14:55:30;21.10;48.00
18147;DHT22;9199;48.832;9.182;2023-04-27T14:57:57;21.10;48.50
18147;DHT22;9199;48.832;9.182;2023-04-27T15:00:23;21.00;49.10
18147;DHT22;9199;48.832;9.182;2023-04-27T15:02:50;21.00;49.40
18147;DHT22;9199;48.832;9.182;2023-04-27T15:05:18;21.10;50.40
18147;DHT22;9199;48.832;9.182;2023-04-27T15:07:45;21.10;49.30
18147;DHT22;9199;48.832;9.182;2023-04-27T15:10:12;21.10;49.70
18147;DHT22;9199;48.832;9.182;2023-04-27T15:12:38;21.10;48.90
18147;DHT22;9199;48.832;9.182;2023-04-27T15:15:06;21.00;47.70
18147;DHT22;9199;48.832;9.182;2023-04-27T15:17:33;20.80;48.10
18147;DHT22;9199;48.832;9.182;2023-04-27T15:20:00;20.80;48.50
18147;DHT22;9199;48.832;9.182;2023-04-27T15:22:28;20.60;50.80
18147;DHT22;9199;48.832;9.182;2023-04-27T15:24:54;20.60;51.30
18147;DHT22;9199;48.832;9.182;2023-04-27T15:27:21;20.70;51.70
18147;DHT22;9199;48.832;9.182;2023-04-27T15:29:48;20.70;51.50
18147;DHT22;9199;48.832;9.182;2023-04-27T15:32:14;20.60;51.70
18147;DHT22;9199;48.832;9.182;2023-04-27T15:34:41;20.40;50.40
18147;DHT22;9199;48.832;9.182;2023-04-27T15:37:09;20.30;52.10
18147;DHT22;9199;48.832;9.182;2023-04-27T15:39:37;20.30;52.60
18147;DHT22;9199;48.832;9.182;2023-04-27T15:42:04;20.40;52.90
18147;DHT22;9199;48.832;9.182;2023-04-27T15:44:30;20.30;52.90
18147;DHT22;9199;48.832;9.182;2023-04-27T15:46:57;20.10;53.40
18147;DHT22;9199;48.832;9.182;2023-04-27T15:49:24;19.90;53.20
18147;DHT22;9199;48.832;9.182;2023-04-27T15:51:51;19.70;53.50
18147;DHT22;9199;48.832;9.182;2023-04-27T15:54:19;19.60;53.90